LEZG/ZAZ METAR and TAF weather

Enter ICAO airport designator
Station Type Date Time Source
LEZG METAR 2022/11/26 10:00 UTC NOAA

LEZG 261000Z VRB01KT CAVOK 09/05 Q1030


Station Type Date Time Source
LEZG Decoded METAR 2022/11/26 10:00 UTC NOAA

Zaragoza / Aeropuerto, Spain (LEZG) 41-40N 001-01W 258M
Nov 26, 2022 - 05:00 AM EST / 2022.11.26 1000 UTC
Wind: Variable at 1 MPH (1 KT):0
Visibility: greater than 7 mile(s):0
Temperature: 48 F (9 C)
Dew Point: 41 F (5 C)
Relative Humidity: 75%
Pressure (altimeter): 30.42 in. Hg (1030 hPa)
ob: LEZG 261000Z VRB01KT CAVOK 09/05 Q1030
cycle: 10

Station Type Date Time Source
LEZG TAF 2022/11/26 06:27 UTC NOAA

TAF LEZG 260500Z 2606/2706 VRB03KT CAVOK TX13/2613Z TN06/2606Z
TEMPO 2606/2610 25013KT

Example: see airport list